Time;durP1;ratioP1;P1;durP2;ratioP2;P2;SDS_P1;SDS_P2;PMS_P1;PMS_P2;Temp;Humidity;BMP_temperature;BMP_pressure;BME280_temperature;BME280_humidity;BME280_pressure;Samples;Min_cycle;Max_cycle;Signal;HPM_P1;HPM_P2
2021/09/01 00:00:44;;;;;;;;;;;18.10;92.90;;;;;;4330835;33;44008;-77
2021/09/01 00:03:11;;;;;;;;;;;18.10;92.90;;;;;;4330721;33;43169;-76
2021/09/01 00:05:44;;;;;;;;;;;18.10;92.90;;;;;;4330940;33;43196;-76
2021/09/01 00:08:14;;;;;;;;;;;18.10;93.00;;;;;;4329887;33;43526;-76
2021/09/01 00:10:44;;;;;;;;;;;18.10;93.00;;;;;;4330695;33;43280;-76
2021/09/01 00:13:17;;;;;;;;;;;18.10;93.00;;;;;;4329076;33;45960;-76
2021/09/01 00:15:46;;;;;;;;;;;18.10;92.90;;;;;;4330577;33;42783;-76
2021/09/01 00:18:14;;;;;;;;;;;18.10;92.90;;;;;;4330976;33;43264;-76
2021/09/01 00:20:43;;;;;;;;;;;18.10;93.00;;;;;;4330203;33;42953;-76
2021/09/01 00:23:14;;;;;;;;;;;18.10;93.00;;;;;;4330563;33;44318;-77
2021/09/01 00:25:42;;;;;;;;;;;18.10;93.00;;;;;;4317729;33;43507;-77
2021/09/01 00:28:12;;;;;;;;;;;18.10;93.00;;;;;;4330329;33;44200;-76
2021/09/01 00:30:39;;;;;;;;;;;18.10;93.00;;;;;;4316935;33;44186;-76
2021/09/01 00:33:14;;;;;;;;;;;18.00;93.00;;;;;;4317308;33;42409;-76
2021/09/01 00:35:46;;;;;;;;;;;18.00;93.00;;;;;;4330248;33;42756;-76
2021/09/01 00:38:19;;;;;;;;;;;18.00;93.00;;;;;;4330106;33;43450;-76
2021/09/01 00:40:46;;;;;;;;;;;18.00;93.00;;;;;;4330518;33;44085;-77
2021/09/01 00:43:16;;;;;;;;;;;18.00;93.00;;;;;;4330368;33;43259;-76
2021/09/01 00:45:43;;;;;;;;;;;18.00;93.10;;;;;;4329267;33;43885;-77
2021/09/01 00:48:11;;;;;;;;;;;18.00;93.10;;;;;;4330077;33;43490;-77
2021/09/01 00:50:40;;;;;;;;;;;18.00;93.10;;;;;;4330151;33;43733;-77
2021/09/01 00:53:10;;;;;;;;;;;18.00;93.10;;;;;;4330147;33;43813;-76
2021/09/01 00:55:37;;;;;;;;;;;18.00;93.10;;;;;;4330038;33;43646;-76
2021/09/01 00:58:04;;;;;;;;;;;18.00;93.10;;;;;;4330518;33;43882;-76
2021/09/01 01:00:45;;;;;;;;;;;18.00;93.10;;;;;;4330239;33;44215;-76
2021/09/01 01:03:13;;;;;;;;;;;18.00;93.10;;;;;;4330009;33;44031;-77
2021/09/01 01:05:43;;;;;;;;;;;17.90;93.00;;;;;;4330540;33;43477;-76
2021/09/01 01:08:16;;;;;;;;;;;17.90;93.10;;;;;;4316706;33;44404;-76
2021/09/01 01:10:44;;;;;;;;;;;18.00;93.10;;;;;;4316941;33;44064;-76
2021/09/01 01:13:14;;;;;;;;;;;17.90;93.00;;;;;;4329894;33;42570;-76
2021/09/01 01:15:41;;;;;;;;;;;17.90;93.00;;;;;;4330086;33;44235;-78
2021/09/01 01:18:09;;;;;;;;;;;17.90;93.10;;;;;;4330418;33;42743;-76
2021/09/01 01:20:39;;;;;;;;;;;17.90;93.00;;;;;;4329803;33;43258;-77
2021/09/01 01:23:11;;;;;;;;;;;17.90;93.00;;;;;;4316921;33;42333;-77
2021/09/01 01:25:42;;;;;;;;;;;17.90;93.10;;;;;;4317262;33;43962;-76
2021/09/01 01:28:12;;;;;;;;;;;17.90;93.00;;;;;;4329745;33;44679;-76
2021/09/01 01:30:46;;;;;;;;;;;17.90;93.10;;;;;;4330228;33;44362;-76
2021/09/01 01:33:15;;;;;;;;;;;17.80;93.00;;;;;;4317275;33;44219;-76
2021/09/01 01:35:45;;;;;;;;;;;17.90;93.10;;;;;;4330152;33;44486;-77
2021/09/01 01:38:19;;;;;;;;;;;17.80;93.10;;;;;;4330154;33;43023;-77
2021/09/01 01:40:49;;;;;;;;;;;17.90;93.10;;;;;;4330683;33;43456;-77
2021/09/01 01:43:16;;;;;;;;;;;17.80;93.00;;;;;;4333030;33;43761;-76
2021/09/01 01:45:45;;;;;;;;;;;17.80;93.00;;;;;;4332366;33;44208;-76
2021/09/01 01:48:16;;;;;;;;;;;17.80;92.90;;;;;;4319424;33;43263;-76
2021/09/01 01:50:49;;;;;;;;;;;17.80;93.00;;;;;;4331830;33;43226;-76
2021/09/01 01:53:21;;;;;;;;;;;17.80;93.00;;;;;;4319681;33;43510;-76
2021/09/01 01:55:48;;;;;;;;;;;17.80;93.00;;;;;;4332734;33;42878;-76
2021/09/01 01:58:18;;;;;;;;;;;17.80;93.10;;;;;;4332480;33;43875;-76
2021/09/01 02:00:48;;;;;;;;;;;17.80;93.00;;;;;;4319437;33;43540;-76
2021/09/01 02:03:18;;;;;;;;;;;17.80;93.10;;;;;;4318912;33;42826;-76
2021/09/01 02:05:45;;;;;;;;;;;17.70;93.00;;;;;;4332103;33;43304;-77
2021/09/01 02:08:15;;;;;;;;;;;17.70;93.10;;;;;;4319141;33;44176;-77
2021/09/01 02:10:47;;;;;;;;;;;17.70;93.10;;;;;;4332578;33;43258;-76
2021/09/01 02:13:17;;;;;;;;;;;17.70;93.10;;;;;;4333067;33;19998;-76
2021/09/01 02:15:52;;;;;;;;;;;17.70;93.20;;;;;;4319290;33;43266;-76
2021/09/01 02:18:19;;;;;;;;;;;17.70;93.10;;;;;;4332512;33;44267;-76
2021/09/01 02:20:52;;;;;;;;;;;17.70;93.20;;;;;;4318788;33;44244;-77
2021/09/01 02:23:19;;;;;;;;;;;17.70;93.20;;;;;;4331995;33;42562;-77
2021/09/01 02:25:49;;;;;;;;;;;17.70;93.20;;;;;;4332005;33;44214;-77
2021/09/01 02:28:16;;;;;;;;;;;17.70;93.20;;;;;;4332100;33;43823;-77
2021/09/01 02:30:46;;;;;;;;;;;17.70;93.20;;;;;;4318773;33;43808;-76
2021/09/01 02:33:13;;;;;;;;;;;17.70;93.20;;;;;;4319033;33;43733;-77
2021/09/01 02:35:40;;;;;;;;;;;17.70;93.20;;;;;;4331912;33;43303;-77
2021/09/01 02:38:07;;;;;;;;;;;17.70;93.20;;;;;;4319031;33;44089;-77
2021/09/01 02:40:34;;;;;;;;;;;17.70;93.20;;;;;;4332118;33;43892;-77
2021/09/01 02:43:07;;;;;;;;;;;17.70;93.20;;;;;;4318943;33;43997;-77
2021/09/01 02:45:37;;;;;;;;;;;17.70;93.30;;;;;;4318441;33;43377;-77
2021/09/01 02:48:07;;;;;;;;;;;17.70;93.30;;;;;;4331978;33;43038;-77
2021/09/01 02:50:37;;;;;;;;;;;17.70;93.30;;;;;;4318947;33;43272;-77
2021/09/01 02:53:04;;;;;;;;;;;17.60;93.30;;;;;;4331374;33;42771;-77
2021/09/01 02:55:37;;;;;;;;;;;17.60;93.20;;;;;;4318842;33;42634;-77
2021/09/01 02:58:04;;;;;;;;;;;17.60;93.30;;;;;;4331984;33;44216;-78
2021/09/01 03:00:39;;;;;;;;;;;17.60;93.30;;;;;;4318588;33;42694;-77
2021/09/01 03:03:07;;;;;;;;;;;17.60;93.30;;;;;;4318237;33;43486;-77
2021/09/01 03:05:40;;;;;;;;;;;17.60;93.40;;;;;;4331522;33;41919;-77
2021/09/01 03:08:12;;;;;;;;;;;17.60;93.40;;;;;;4331760;33;44719;-77
2021/09/01 03:10:39;;;;;;;;;;;17.60;93.40;;;;;;4330716;33;43386;-77
2021/09/01 03:13:09;;;;;;;;;;;17.60;93.40;;;;;;4331155;33;43578;-76
2021/09/01 03:15:39;;;;;;;;;;;17.60;93.40;;;;;;4330120;33;43141;-76
2021/09/01 03:18:08;;;;;;;;;;;17.60;93.40;;;;;;4331172;33;45342;-76
2021/09/01 03:20:38;;;;;;;;;;;17.60;93.40;;;;;;4331333;33;43027;-77
2021/09/01 03:23:06;;;;;;;;;;;17.60;93.40;;;;;;4331476;33;43295;-77
2021/09/01 03:25:36;;;;;;;;;;;17.60;93.40;;;;;;4318379;33;43350;-77
2021/09/01 03:28:03;;;;;;;;;;;17.60;93.40;;;;;;4331437;33;43116;-76
2021/09/01 03:30:30;;;;;;;;;;;17.60;93.40;;;;;;4317889;33;44202;-76
2021/09/01 03:33:02;;;;;;;;;;;17.60;93.40;;;;;;4331157;33;42078;-76
2021/09/01 03:35:29;;;;;;;;;;;17.60;93.40;;;;;;4318215;33;45010;-76
2021/09/01 03:37:56;;;;;;;;;;;17.60;93.40;;;;;;4331221;33;44094;-77
2021/09/01 03:40:23;;;;;;;;;;;17.60;93.40;;;;;;4317657;33;42636;-76
2021/09/01 03:42:53;;;;;;;;;;;17.60;93.40;;;;;;4330837;33;43883;-76
2021/09/01 03:45:20;;;;;;;;;;;17.60;93.40;;;;;;4331119;33;43778;-77
2021/09/01 03:47:50;;;;;;;;;;;17.60;93.40;;;;;;4330078;33;43198;-76
2021/09/01 03:50:19;;;;;;;;;;;17.50;93.30;;;;;;4317519;33;42748;-76
2021/09/01 03:52:48;;;;;;;;;;;17.50;93.30;;;;;;4317847;33;42856;-77
2021/09/01 03:55:18;;;;;;;;;;;17.50;93.30;;;;;;4330581;33;43557;-76
2021/09/01 03:57:54;;;;;;;;;;;17.50;93.30;;;;;;4331142;33;43945;-77
2021/09/01 04:00:21;;;;;;;;;;;17.50;93.30;;;;;;4331105;33;44209;-76
2021/09/01 04:02:54;;;;;;;;;;;17.50;93.30;;;;;;4330022;33;44393;-76
2021/09/01 04:05:23;;;;;;;;;;;17.50;93.40;;;;;;4317702;33;44494;-76
2021/09/01 04:07:53;;;;;;;;;;;17.50;93.40;;;;;;4330558;33;43256;-76
2021/09/01 04:10:20;;;;;;;;;;;17.50;93.50;;;;;;4330439;33;43562;-78
2021/09/01 04:12:47;;;;;;;;;;;17.50;93.50;;;;;;4329863;33;43521;-76
2021/09/01 04:15:20;;;;;;;;;;;17.50;93.50;;;;;;4331481;33;20016;-76
2021/09/01 04:17:47;;;;;;;;;;;17.50;93.50;;;;;;4330838;33;43916;-77
2021/09/01 04:20:14;;;;;;;;;;;17.50;93.50;;;;;;4330404;33;44205;-76
2021/09/01 04:22:47;;;;;;;;;;;17.50;93.50;;;;;;4330285;33;44751;-76
2021/09/01 04:25:14;;;;;;;;;;;17.50;93.50;;;;;;4317416;33;42670;-76
2021/09/01 04:27:41;;;;;;;;;;;17.50;93.40;;;;;;4330299;33;44009;-76
2021/09/01 04:30:09;;;;;;;;;;;17.50;93.50;;;;;;4330728;33;43316;-76
2021/09/01 04:32:41;;;;;;;;;;;17.40;93.40;;;;;;4330114;33;44612;-77
2021/09/01 04:35:08;;;;;;;;;;;17.40;93.40;;;;;;4330302;33;43631;-77
2021/09/01 04:37:41;;;;;;;;;;;17.40;93.40;;;;;;4317279;33;43006;-76
2021/09/01 04:40:09;;;;;;;;;;;17.40;93.40;;;;;;4316995;33;43787;-76
2021/09/01 04:42:38;;;;;;;;;;;17.40;93.40;;;;;;4317546;33;44252;-76
2021/09/01 04:45:06;;;;;;;;;;;17.40;93.50;;;;;;4316903;33;43757;-77
2021/09/01 04:47:35;;;;;;;;;;;17.40;93.50;;;;;;4329555;33;43612;-76
2021/09/01 04:50:08;;;;;;;;;;;17.40;93.50;;;;;;4330177;33;43540;-76
2021/09/01 04:52:36;;;;;;;;;;;17.40;93.50;;;;;;4329428;33;43436;-76
2021/09/01 04:55:07;;;;;;;;;;;17.40;93.50;;;;;;4317294;33;43910;-76
2021/09/01 04:57:35;;;;;;;;;;;17.40;93.50;;;;;;4329469;33;43900;-77
2021/09/01 05:00:03;;;;;;;;;;;17.40;93.50;;;;;;4317613;33;43379;-77
2021/09/01 05:02:36;;;;;;;;;;;17.40;93.50;;;;;;4329849;33;44178;-76
2021/09/01 05:05:05;;;;;;;;;;;17.40;93.50;;;;;;4317237;33;44949;-76
2021/09/01 05:07:38;;;;;;;;;;;17.40;93.60;;;;;;4317213;33;44829;-76
2021/09/01 05:10:08;;;;;;;;;;;17.40;93.60;;;;;;4316709;33;43750;-76
2021/09/01 05:12:37;;;;;;;;;;;17.40;93.60;;;;;;4316835;33;43505;-76
2021/09/01 05:15:07;;;;;;;;;;;17.40;93.60;;;;;;4331376;33;43647;-76
2021/09/01 05:17:37;;;;;;;;;;;17.40;93.60;;;;;;4332891;33;42755;-76
2021/09/01 05:20:07;;;;;;;;;;;17.30;93.60;;;;;;4333352;33;43299;-76
2021/09/01 05:22:35;;;;;;;;;;;17.40;93.60;;;;;;4331878;33;42999;-76
2021/09/01 05:25:08;;;;;;;;;;;17.40;93.70;;;;;;4333019;33;44146;-77
2021/09/01 05:27:36;;;;;;;;;;;17.40;93.60;;;;;;4332975;33;44223;-76
2021/09/01 05:30:14;;;;;;;;;;;17.40;93.60;;;;;;4332678;33;42575;-76
2021/09/01 05:32:43;;;;;;;;;;;17.40;93.70;;;;;;4332825;33;42867;-76
2021/09/01 05:35:14;;;;;;;;;;;17.40;93.70;;;;;;4332525;33;42593;-76
2021/09/01 05:37:49;;;;;;;;;;;17.30;93.60;;;;;;4320234;33;43507;-76
2021/09/01 05:40:16;;;;;;;;;;;17.40;93.60;;;;;;4332858;33;45819;-76
2021/09/01 05:42:46;;;;;;;;;;;17.40;93.60;;;;;;4332928;33;43702;-76
2021/09/01 05:45:13;;;;;;;;;;;17.40;93.60;;;;;;4332650;33;45495;-76
2021/09/01 05:47:44;;;;;;;;;;;17.40;93.60;;;;;;4332336;33;43324;-77
2021/09/01 05:50:14;;;;;;;;;;;17.30;93.60;;;;;;4332301;33;42878;-77
2021/09/01 05:52:41;;;;;;;;;;;17.30;93.60;;;;;;4332383;33;44145;-77
2021/09/01 05:55:14;;;;;;;;;;;17.30;93.60;;;;;;4332836;33;43203;-76
2021/09/01 05:57:43;;;;;;;;;;;17.30;93.60;;;;;;4332665;33;44107;-76
2021/09/01 06:00:12;;;;;;;;;;;17.30;93.60;;;;;;4332618;33;44039;-77
2021/09/01 06:02:52;;;;;;;;;;;17.30;93.50;;;;;;4318840;33;43707;-76
2021/09/01 06:05:21;;;;;;;;;;;17.30;93.50;;;;;;4319650;33;44001;-76
2021/09/01 06:07:55;;;;;;;;;;;17.30;93.60;;;;;;4332608;33;43904;-76
2021/09/01 06:10:28;;;;;;;;;;;17.30;93.60;;;;;;4319329;33;42784;-76
2021/09/01 06:12:56;;;;;;;;;;;17.30;93.60;;;;;;4319355;33;43970;-76
2021/09/01 06:15:26;;;;;;;;;;;17.30;93.60;;;;;;4319017;33;43392;-76
2021/09/01 06:18:00;;;;;;;;;;;17.30;93.60;;;;;;4332312;33;43896;-77
2021/09/01 06:20:27;;;;;;;;;;;17.30;93.60;;;;;;4332604;33;44192;-78
2021/09/01 06:22:55;;;;;;;;;;;17.30;94.00;;;;;;4319195;33;42263;-76
2021/09/01 06:25:22;;;;;;;;;;;17.30;93.60;;;;;;4319152;33;43958;-76
2021/09/01 06:27:49;;;;;;;;;;;17.30;93.60;;;;;;4331344;33;43228;-76
2021/09/01 06:30:19;;;;;;;;;;;17.30;93.60;;;;;;4332016;33;42965;-76
2021/09/01 06:32:46;;;;;;;;;;;17.30;93.60;;;;;;4332340;33;43945;-76
2021/09/01 06:35:14;;;;;;;;;;;17.30;93.60;;;;;;4332093;33;43030;-76
2021/09/01 06:37:42;;;;;;;;;;;17.30;93.70;;;;;;4332121;33;46067;-76
2021/09/01 06:40:12;;;;;;;;;;;17.30;93.60;;;;;;4331682;33;45651;-76
2021/09/01 06:42:40;;;;;;;;;;;17.30;93.70;;;;;;4331951;33;43249;-77
2021/09/01 06:45:08;;;;;;;;;;;17.30;93.70;;;;;;4332004;33;43494;-77
2021/09/01 06:47:53;;;;;;;;;;;17.30;93.60;;;;;;4331670;33;44191;-77
2021/09/01 06:50:22;;;;;;;;;;;17.30;93.70;;;;;;4332024;33;42816;-76
2021/09/01 06:52:52;;;;;;;;;;;17.20;93.70;;;;;;4331860;33;44302;-77
2021/09/01 06:55:22;;;;;;;;;;;17.30;93.80;;;;;;4331692;33;44257;-76
2021/09/01 06:57:49;;;;;;;;;;;17.20;93.70;;;;;;4318382;33;45164;-76
2021/09/01 07:00:17;;;;;;;;;;;17.20;93.70;;;;;;4331768;33;45290;-76
2021/09/01 07:02:45;;;;;;;;;;;17.30;93.80;;;;;;4331274;33;42964;-77
2021/09/01 07:05:17;;;;;;;;;;;17.20;93.70;;;;;;4331350;33;43329;-77
2021/09/01 07:07:44;;;;;;;;;;;17.20;93.70;;;;;;4318237;33;42652;-77
2021/09/01 07:10:12;;;;;;;;;;;17.20;93.70;;;;;;4318552;33;42995;-77
2021/09/01 07:12:42;;;;;;;;;;;17.20;93.70;;;;;;4331488;33;44187;-77
2021/09/01 07:15:09;;;;;;;;;;;17.20;93.80;;;;;;4331690;33;44271;-77
2021/09/01 07:17:38;;;;;;;;;;;17.20;93.80;;;;;;4331526;33;44168;-77
2021/09/01 07:20:10;;;;;;;;;;;17.30;93.80;;;;;;4331254;33;44150;-77
2021/09/01 07:22:37;;;;;;;;;;;17.20;94.10;;;;;;4330082;33;44171;-77
2021/09/01 07:25:05;;;;;;;;;;;17.20;93.80;;;;;;4317881;33;44249;-76
2021/09/01 07:27:36;;;;;;;;;;;17.20;93.80;;;;;;4331425;33;45292;-77
2021/09/01 07:30:04;;;;;;;;;;;17.20;93.80;;;;;;4318172;33;43659;-77
2021/09/01 07:32:34;;;;;;;;;;;17.20;93.80;;;;;;4318452;33;43882;-76
2021/09/01 07:35:04;;;;;;;;;;;17.20;93.80;;;;;;4331084;33;43221;-76
2021/09/01 07:37:35;;;;;;;;;;;17.20;93.80;;;;;;4318336;33;43440;-77
2021/09/01 07:40:05;;;;;;;;;;;17.20;93.80;;;;;;4318059;33;45062;-77
2021/09/01 07:42:32;;;;;;;;;;;17.20;93.80;;;;;;4317978;33;42901;-77
2021/09/01 07:45:00;;;;;;;;;;;17.20;93.80;;;;;;4331145;33;44929;-76
2021/09/01 07:47:29;;;;;;;;;;;17.20;93.80;;;;;;4331204;33;43481;-77
2021/09/01 07:49:56;;;;;;;;;;;17.20;93.80;;;;;;4331215;33;44299;-77
2021/09/01 07:52:25;;;;;;;;;;;17.20;93.80;;;;;;4331138;33;43073;-76
2021/09/01 07:54:52;;;;;;;;;;;17.20;93.80;;;;;;4317793;33;42862;-77
2021/09/01 07:57:24;;;;;;;;;;;17.20;93.80;;;;;;4330970;33;43160;-76
2021/09/01 07:59:51;;;;;;;;;;;17.20;93.80;;;;;;4331420;33;44037;-77
2021/09/01 08:02:18;;;;;;;;;;;17.20;93.80;;;;;;4330816;33;43386;-77
2021/09/01 08:04:47;;;;;;;;;;;17.20;93.80;;;;;;4331021;33;44203;-76
2021/09/01 08:07:20;;;;;;;;;;;17.20;93.80;;;;;;4330925;33;44543;-76
2021/09/01 08:09:53;;;;;;;;;;;17.20;93.80;;;;;;4330837;33;42994;-77
2021/09/01 08:12:26;;;;;;;;;;;17.20;93.80;;;;;;4330549;33;42786;-76
2021/09/01 08:14:54;;;;;;;;;;;17.20;93.80;;;;;;4317385;33;44380;-77
2021/09/01 08:17:21;;;;;;;;;;;17.20;93.80;;;;;;4330626;33;42772;-76
2021/09/01 08:19:59;;;;;;;;;;;17.20;93.80;;;;;;4330266;33;43593;-76
2021/09/01 08:22:41;;;;;;;;;;;17.20;93.80;;;;;;4330692;33;43231;-76
2021/09/01 08:25:09;;;;;;;;;;;17.20;93.80;;;;;;4317614;33;43854;-76
2021/09/01 08:27:42;;;;;;;;;;;17.20;93.70;;;;;;4330449;33;43782;-76
2021/09/01 08:30:12;;;;;;;;;;;17.20;93.70;;;;;;4317472;33;42710;-77
2021/09/01 08:32:40;;;;;;;;;;;17.20;93.70;;;;;;4330445;33;43631;-76
2021/09/01 08:35:07;;;;;;;;;;;17.20;93.70;;;;;;4330683;33;42929;-76
2021/09/01 08:37:34;;;;;;;;;;;17.20;93.70;;;;;;4330132;33;42891;-77
2021/09/01 08:40:08;;;;;;;;;;;17.20;93.60;;;;;;4317438;33;44851;-77
2021/09/01 08:42:36;;;;;;;;;;;17.20;93.60;;;;;;4317305;33;43052;-76
2021/09/01 08:45:03;;;;;;;;;;;17.20;93.60;;;;;;4330069;33;42791;-76
2021/09/01 08:47:34;;;;;;;;;;;17.20;93.60;;;;;;4317635;33;43460;-76
2021/09/01 08:50:03;;;;;;;;;;;17.20;93.60;;;;;;4332886;33;43056;-76
2021/09/01 08:52:31;;;;;;;;;;;17.20;93.60;;;;;;4322158;33;44250;-76
2021/09/01 08:54:58;;;;;;;;;;;17.20;93.50;;;;;;4335471;33;45062;-76
2021/09/01 08:57:25;;;;;;;;;;;17.20;93.60;;;;;;4335356;33;43268;-77
2021/09/01 08:59:55;;;;;;;;;;;17.20;93.60;;;;;;4335360;33;42937;-76
2021/09/01 09:02:31;;;;;;;;;;;17.20;93.60;;;;;;4334756;33;42887;-76
2021/09/01 09:05:02;;;;;;;;;;;17.20;93.50;;;;;;4321970;33;42309;-76
2021/09/01 09:07:30;;;;;;;;;;;17.20;93.50;;;;;;4322057;33;42730;-76
2021/09/01 09:10:03;;;;;;;;;;;17.20;93.50;;;;;;4321944;33;43670;-76
2021/09/01 09:12:32;;;;;;;;;;;17.20;93.50;;;;;;4322021;33;43065;-76
2021/09/01 09:15:01;;;;;;;;;;;17.20;93.40;;;;;;4334788;33;43050;-76
2021/09/01 09:17:36;;;;;;;;;;;17.20;93.40;;;;;;4321580;33;45007;-76
2021/09/01 09:20:05;;;;;;;;;;;17.20;93.40;;;;;;4335364;33;43059;-77
2021/09/01 09:22:36;;;;;;;;;;;17.20;93.40;;;;;;4321612;33;43306;-76
2021/09/01 09:25:06;;;;;;;;;;;17.20;93.40;;;;;;4322242;33;44744;-76
2021/09/01 09:27:55;;;;;;;;;;;17.20;93.40;;;;;;4321503;33;44089;-76
2021/09/01 09:30:26;;;;;;;;;;;17.20;93.40;;;;;;4321528;33;42648;-76
2021/09/01 09:32:55;;;;;;;;;;;17.20;93.40;;;;;;4334728;33;42865;-76
2021/09/01 09:35:27;;;;;;;;;;;17.20;93.40;;;;;;4334647;33;43508;-76
2021/09/01 09:37:59;;;;;;;;;;;17.20;93.30;;;;;;4335117;33;44093;-76
2021/09/01 09:40:27;;;;;;;;;;;17.20;93.30;;;;;;4321587;33;43750;-76
2021/09/01 09:42:57;;;;;;;;;;;17.20;93.30;;;;;;4334810;33;42685;-77
2021/09/01 09:45:25;;;;;;;;;;;17.20;93.70;;;;;;4334100;33;44206;-76
2021/09/01 09:48:00;;;;;;;;;;;17.20;93.30;;;;;;4322127;33;44131;-76
2021/09/01 09:50:28;;;;;;;;;;;17.20;93.30;;;;;;4335902;33;20005;-76
2021/09/01 09:52:56;;;;;;;;;;;17.20;93.30;;;;;;4321489;33;44004;-76
2021/09/01 09:55:27;;;;;;;;;;;17.20;93.30;;;;;;4333701;33;43564;-77
2021/09/01 09:58:11;;;;;;;;;;;17.20;93.30;;;;;;4334768;33;42549;-76
2021/09/01 10:00:55;;;;;;;;;;;17.20;93.30;;;;;;4320310;33;44227;-76
2021/09/01 10:03:22;;;;;;;;;;;17.20;93.20;;;;;;4332074;33;42975;-76
2021/09/01 10:05:50;;;;;;;;;;;17.20;93.20;;;;;;4332639;33;43995;-77
2021/09/01 10:08:17;;;;;;;;;;;17.20;93.50;;;;;;4332422;33;43561;-76
2021/09/01 10:10:44;;;;;;;;;;;17.30;93.20;;;;;;4332197;33;44206;-77
2021/09/01 10:13:16;;;;;;;;;;;17.30;93.20;;;;;;4332563;33;43649;-76
2021/09/01 10:15:46;;;;;;;;;;;17.30;93.20;;;;;;4319401;33;42391;-76
2021/09/01 10:18:17;;;;;;;;;;;17.30;93.20;;;;;;4331955;33;44090;-76
2021/09/01 10:20:47;;;;;;;;;;;17.30;93.20;;;;;;4333326;33;20053;-77
2021/09/01 10:23:14;;;;;;;;;;;17.30;93.20;;;;;;4330822;33;42834;-76
2021/09/01 10:25:50;;;;;;;;;;;17.30;93.10;;;;;;4319025;33;44030;-76
2021/09/01 10:28:20;;;;;;;;;;;17.30;93.10;;;;;;4332529;33;43064;-77
2021/09/01 10:31:02;;;;;;;;;;;17.30;93.10;;;;;;4331815;33;43466;-76
2021/09/01 10:33:36;;;;;;;;;;;17.30;93.10;;;;;;4332352;33;43659;-77
2021/09/01 10:36:27;;;;;;;;;;;17.30;93.10;;;;;;4318920;33;44974;-78
2021/09/01 10:39:00;;;;;;;;;;;17.30;93.10;;;;;;4326315;33;42929;-76
2021/09/01 10:41:37;;;;;;;;;;;17.30;93.10;;;;;;4319360;33;43281;-77
2021/09/01 10:44:10;;;;;;;;;;;17.30;93.10;;;;;;4332179;33;43063;-76
2021/09/01 10:46:52;;;;;;;;;;;17.30;93.10;;;;;;4332143;33;43701;-76
2021/09/01 10:49:51;;;;;;;;;;;17.30;93.00;;;;;;4331744;33;43935;-76
2021/09/01 10:52:27;;;;;;;;;;;17.30;93.00;;;;;;4305102;33;20044;-77
2021/09/01 10:55:00;;;;;;;;;;;17.30;93.00;;;;;;4332023;33;43272;-76
2021/09/01 10:57:30;;;;;;;;;;;17.30;93.00;;;;;;4332138;33;43148;-76
2021/09/01 11:00:01;;;;;;;;;;;17.30;92.90;;;;;;4331345;33;44075;-76
2021/09/01 11:02:28;;;;;;;;;;;17.30;92.90;;;;;;4331533;33;41725;-76
2021/09/01 11:04:56;;;;;;;;;;;17.30;92.90;;;;;;4331887;33;43851;-76
2021/09/01 11:07:24;;;;;;;;;;;17.30;92.90;;;;;;4318619;33;43010;-76
2021/09/01 11:09:57;;;;;;;;;;;17.30;92.90;;;;;;4318148;33;44191;-76
2021/09/01 11:12:25;;;;;;;;;;;17.30;92.90;;;;;;4317801;33;43197;-77
2021/09/01 11:14:55;;;;;;;;;;;17.30;92.90;;;;;;4331324;33;43828;-77
2021/09/01 11:17:25;;;;;;;;;;;17.40;92.90;;;;;;4331179;33;42935;-76
2021/09/01 11:20:00;;;;;;;;;;;17.30;92.90;;;;;;4330235;33;44333;-76
2021/09/01 11:22:29;;;;;;;;;;;17.30;92.90;;;;;;4332912;33;20009;-76
2021/09/01 11:25:07;;;;;;;;;;;17.30;92.90;;;;;;4331026;33;42669;-77
2021/09/01 11:27:37;;;;;;;;;;;17.30;92.90;;;;;;4318240;33;43104;-76
2021/09/01 11:30:08;;;;;;;;;;;17.30;92.90;;;;;;4331401;33;43064;-76
2021/09/01 11:32:39;;;;;;;;;;;17.30;92.80;;;;;;4331286;33;42319;-76
2021/09/01 11:35:09;;;;;;;;;;;17.30;92.80;;;;;;4331469;33;43886;-77
2021/09/01 11:37:39;;;;;;;;;;;17.30;92.80;;;;;;4331038;33;43017;-76
2021/09/01 11:40:09;;;;;;;;;;;17.40;92.80;;;;;;4331117;33;42153;-76
2021/09/01 11:42:38;;;;;;;;;;;17.30;92.80;;;;;;4330772;33;42681;-77
2021/09/01 11:45:10;;;;;;;;;;;17.40;92.80;;;;;;4330597;33;45916;-76
2021/09/01 11:47:43;;;;;;;;;;;17.40;92.80;;;;;;4318080;33;43142;-76
2021/09/01 11:50:14;;;;;;;;;;;17.40;92.80;;;;;;4317967;33;43854;-77
2021/09/01 11:52:42;;;;;;;;;;;17.40;92.80;;;;;;4332188;33;20059;-78
2021/09/01 11:55:11;;;;;;;;;;;17.40;92.80;;;;;;4318178;33;41847;-76
2021/09/01 11:57:39;;;;;;;;;;;17.40;92.80;;;;;;4330011;33;44225;-76
2021/09/01 12:00:07;;;;;;;;;;;17.40;92.70;;;;;;4330584;33;43406;-76
2021/09/01 12:02:34;;;;;;;;;;;17.40;92.70;;;;;;4330798;33;43785;-77
2021/09/01 12:05:02;;;;;;;;;;;17.40;92.70;;;;;;4330977;33;45162;-76
2021/09/01 12:07:33;;;;;;;;;;;17.40;92.70;;;;;;4330590;33;43253;-76
2021/09/01 12:10:05;;;;;;;;;;;17.40;92.80;;;;;;4330873;33;43808;-78
2021/09/01 12:12:33;;;;;;;;;;;17.40;92.80;;;;;;4330613;33;42518;-76
2021/09/01 12:15:14;;;;;;;;;;;17.40;92.80;;;;;;4330543;33;43771;-77
2021/09/01 12:18:01;;;;;;;;;;;17.40;92.80;;;;;;4317197;33;43449;-76
2021/09/01 12:20:29;;;;;;;;;;;17.40;92.80;;;;;;4317509;33;43516;-76
2021/09/01 12:22:56;;;;;;;;;;;17.40;92.80;;;;;;4331567;33;20099;-76
2021/09/01 12:25:26;;;;;;;;;;;17.40;92.80;;;;;;4329926;33;43765;-76
2021/09/01 12:28:11;;;;;;;;;;;17.40;92.80;;;;;;4317273;33;44239;-77
2021/09/01 12:30:45;;;;;;;;;;;17.40;92.80;;;;;;4330839;33;43045;-76
2021/09/01 12:33:13;;;;;;;;;;;17.50;92.80;;;;;;4317068;33;43271;-76
2021/09/01 12:35:41;;;;;;;;;;;17.40;92.80;;;;;;4330287;33;42611;-76
2021/09/01 12:38:08;;;;;;;;;;;17.50;92.80;;;;;;4330873;33;44889;-76
2021/09/01 12:40:40;;;;;;;;;;;17.50;92.80;;;;;;4330460;33;42807;-76
2021/09/01 12:43:11;;;;;;;;;;;17.50;92.70;;;;;;4330131;33;43554;-76
2021/09/01 12:45:39;;;;;;;;;;;17.50;92.80;;;;;;4317295;33;44712;-77
2021/09/01 12:48:07;;;;;;;;;;;17.50;92.70;;;;;;4330567;33;43275;-76
2021/09/01 12:50:37;;;;;;;;;;;17.50;92.70;;;;;;4317643;33;43051;-76
2021/09/01 12:53:08;;;;;;;;;;;17.50;92.70;;;;;;4318209;33;20432;-76
2021/09/01 12:55:36;;;;;;;;;;;17.50;92.70;;;;;;4330140;33;42716;-76
2021/09/01 12:58:06;;;;;;;;;;;17.50;92.70;;;;;;4317232;33;43011;-78
2021/09/01 13:00:36;;;;;;;;;;;17.50;92.70;;;;;;4330126;33;43201;-76
2021/09/01 13:03:05;;;;;;;;;;;17.50;92.70;;;;;;4329906;33;43555;-77
2021/09/01 13:05:33;;;;;;;;;;;17.50;92.70;;;;;;4329972;33;43791;-76
2021/09/01 13:08:01;;;;;;;;;;;17.50;92.70;;;;;;4329966;33;42726;-77
2021/09/01 13:10:34;;;;;;;;;;;17.50;92.70;;;;;;4330421;33;44201;-76
2021/09/01 13:13:05;;;;;;;;;;;17.50;92.70;;;;;;4329264;33;44524;-76
2021/09/01 13:15:35;;;;;;;;;;;17.50;92.70;;;;;;4329909;33;43473;-76
2021/09/01 13:18:04;;;;;;;;;;;17.50;92.70;;;;;;4330188;33;44269;-76
2021/09/01 13:20:33;;;;;;;;;;;17.50;92.60;;;;;;4330263;33;43669;-76
2021/09/01 13:23:00;;;;;;;;;;;17.60;92.70;;;;;;4329913;33;43499;-76
2021/09/01 13:25:27;;;;;;;;;;;17.50;92.60;;;;;;4330134;33;44576;-77
2021/09/01 13:27:59;;;;;;;;;;;17.50;92.60;;;;;;4317175;33;43715;-77
2021/09/01 13:30:48;;;;;;;;;;;17.60;92.70;;;;;;4319302;33;44572;-76
2021/09/01 13:33:15;;;;;;;;;;;17.60;92.60;;;;;;4316691;33;43177;-76
2021/09/01 13:35:42;;;;;;;;;;;17.60;92.60;;;;;;4331191;33;43707;-76
2021/09/01 13:38:09;;;;;;;;;;;17.60;92.60;;;;;;4319320;33;42787;-76
2021/09/01 13:40:38;;;;;;;;;;;17.60;92.60;;;;;;4332029;33;44405;-76
2021/09/01 13:43:07;;;;;;;;;;;17.60;92.60;;;;;;4332734;33;44021;-76
2021/09/01 13:45:42;;;;;;;;;;;17.60;92.60;;;;;;4333038;33;43718;-76
2021/09/01 13:48:10;;;;;;;;;;;17.60;92.60;;;;;;4319667;33;43037;-77
2021/09/01 13:50:39;;;;;;;;;;;17.60;92.60;;;;;;4332537;33;42450;-77
2021/09/01 13:53:13;;;;;;;;;;;17.60;92.50;;;;;;4320046;33;43489;-77
2021/09/01 13:55:43;;;;;;;;;;;17.60;92.50;;;;;;4333583;33;20036;-77
2021/09/01 13:58:13;;;;;;;;;;;17.60;92.50;;;;;;4319363;33;42776;-76
2021/09/01 14:00:40;;;;;;;;;;;17.60;92.50;;;;;;4331206;33;42721;-76
2021/09/01 14:03:12;;;;;;;;;;;17.60;92.50;;;;;;4319026;33;42714;-76
2021/09/01 14:05:45;;;;;;;;;;;17.60;92.50;;;;;;4332767;33;44191;-76
2021/09/01 14:08:12;;;;;;;;;;;17.60;92.50;;;;;;4331772;33;43943;-77
2021/09/01 14:10:39;;;;;;;;;;;17.60;92.50;;;;;;4319376;33;43932;-76
2021/09/01 14:13:06;;;;;;;;;;;17.60;92.50;;;;;;4318916;33;44063;-76
2021/09/01 14:15:34;;;;;;;;;;;17.60;92.50;;;;;;4332106;33;44313;-76
2021/09/01 14:18:04;;;;;;;;;;;17.60;92.40;;;;;;4332480;33;43519;-76
2021/09/01 14:20:31;;;;;;;;;;;17.60;92.40;;;;;;4331975;33;43447;-77
2021/09/01 14:22:58;;;;;;;;;;;17.60;92.40;;;;;;4332053;33;43526;-76
2021/09/01 14:25:29;;;;;;;;;;;17.60;92.40;;;;;;4331841;33;42419;-76
2021/09/01 14:27:56;;;;;;;;;;;17.60;92.40;;;;;;4319077;33;42954;-77
2021/09/01 14:30:23;;;;;;;;;;;17.70;92.40;;;;;;4330746;33;43039;-76
2021/09/01 14:32:53;;;;;;;;;;;17.60;92.30;;;;;;4331913;33;43253;-76